createdAt,value
2017-05-07T04:00:52.206Z,1013.31
2017-05-07T04:01:17.760Z,1013.31
2017-05-07T04:01:43.520Z,1013.29
2017-05-07T04:02:09.092Z,1013.3
2017-05-07T04:02:34.657Z,1013.31
2017-05-07T04:03:00.209Z,1013.3
2017-05-07T04:03:25.745Z,1013.28
2017-05-07T04:03:51.427Z,1013.31
2017-05-07T04:04:17.732Z,1013.3
2017-05-07T04:04:42.521Z,1013.3
2017-05-07T04:05:08.348Z,1013.26
2017-05-07T04:05:33.921Z,1013.27
2017-05-07T04:05:59.494Z,1013.25
2017-05-07T04:06:25.042Z,1013.29
2017-05-07T04:06:50.609Z,1013.28
2017-05-07T04:07:16.173Z,1013.28
2017-05-07T04:07:41.748Z,1013.28
2017-05-07T04:08:07.336Z,1013.25
2017-05-07T04:08:33.008Z,1013.25
2017-05-07T04:08:58.567Z,1013.29
2017-05-07T04:09:24.127Z,1013.25
2017-05-07T04:09:49.696Z,1013.24
2017-05-07T04:10:15.271Z,1013.28
2017-05-07T04:10:40.854Z,1013.28
2017-05-07T04:11:06.407Z,1013.3
2017-05-07T04:11:32.023Z,1013.29
2017-05-07T04:11:57.578Z,1013.27
2017-05-07T04:12:23.133Z,1013.26
2017-05-07T04:12:48.689Z,1013.25
2017-05-07T04:13:14.262Z,1013.28
2017-05-07T04:13:39.843Z,1013.28
2017-05-07T04:14:05.424Z,1013.26
2017-05-07T04:14:30.985Z,1013.26
2017-05-07T04:14:56.548Z,1013.26
2017-05-07T04:15:22.124Z,1013.26
2017-05-07T04:15:47.820Z,1013.26
2017-05-07T04:16:13.394Z,1013.25
2017-05-07T04:16:38.952Z,1013.33
2017-05-07T04:17:05.234Z,1013.31
2017-05-07T04:17:30.794Z,1013.32
2017-05-07T04:17:56.352Z,1013.29
2017-05-07T04:18:21.945Z,1013.31
2017-05-07T04:18:47.502Z,1013.34
2017-05-07T04:19:13.053Z,1013.32
2017-05-07T04:19:38.644Z,1013.33
2017-05-07T04:20:04.223Z,1013.35
2017-05-07T04:20:29.779Z,1013.33
2017-05-07T04:20:55.427Z,1013.29
2017-05-07T04:21:20.974Z,1013.32
2017-05-07T04:21:46.534Z,1013.34
2017-05-07T04:22:12.171Z,1013.36
2017-05-07T04:22:37.866Z,1013.32
2017-05-07T04:23:03.421Z,1013.34
2017-05-07T04:23:28.990Z,1013.34
2017-05-07T04:23:54.617Z,1013.35
2017-05-07T04:24:20.202Z,1013.33
2017-05-07T04:24:45.762Z,1013.32
2017-05-07T04:25:11.343Z,1013.32
2017-05-07T04:25:36.907Z,1013.35
2017-05-07T04:26:02.476Z,1013.33
2017-05-07T04:26:28.090Z,1013.29
2017-05-07T04:26:53.651Z,1013.31
2017-05-07T04:27:19.215Z,1013.32
2017-05-07T04:27:44.787Z,1013.3
2017-05-07T04:28:10.345Z,1013.33
2017-05-07T04:28:35.899Z,1013.32
2017-05-07T04:29:01.457Z,1013.31
2017-05-07T04:29:27.014Z,1013.31
2017-05-07T04:29:52.633Z,1013.32
2017-05-07T04:30:18.189Z,1013.31
2017-05-07T04:30:43.746Z,1013.33
2017-05-07T04:31:09.308Z,1013.33
2017-05-07T04:31:34.859Z,1013.34
2017-05-07T04:32:00.420Z,1013.35
2017-05-07T04:32:26.002Z,1013.34
2017-05-07T04:32:51.564Z,1013.35
2017-05-07T04:33:17.148Z,1013.33
2017-05-07T04:33:42.767Z,1013.35
2017-05-07T04:34:08.333Z,1013.33
2017-05-07T04:34:33.895Z,1013.29
2017-05-07T04:34:59.478Z,1013.37
2017-05-07T04:35:25.028Z,1013.34
2017-05-07T04:35:50.594Z,1013.31
2017-05-07T04:36:16.234Z,1013.35
2017-05-07T04:36:41.893Z,1013.34
2017-05-07T04:37:07.465Z,1013.32
2017-05-07T04:37:33.035Z,1013.33
2017-05-07T04:37:58.589Z,1013.31
2017-05-07T04:38:24.139Z,1013.34
2017-05-07T04:38:49.712Z,1013.33
2017-05-07T04:39:15.340Z,1013.32
2017-05-07T04:39:40.892Z,1013.31
2017-05-07T04:40:06.463Z,1013.34
2017-05-07T04:40:32.053Z,1013.33
2017-05-07T04:40:57.644Z,1013.32
2017-05-07T04:41:23.213Z,1013.33
2017-05-07T04:41:48.769Z,1013.32
2017-05-07T04:42:14.315Z,1013.31
2017-05-07T04:42:39.863Z,1013.29
2017-05-07T04:43:05.477Z,1013.3
2017-05-07T04:43:31.030Z,1013.32
2017-05-07T04:43:56.601Z,1013.3
2017-05-07T04:44:22.153Z,1013.3
2017-05-07T04:44:47.714Z,1013.31
2017-05-07T04:45:13.292Z,1013.33
2017-05-07T04:45:38.853Z,1013.35
2017-05-07T04:46:04.423Z,1013.36
2017-05-07T04:46:30.753Z,1013.34
2017-05-07T04:46:55.664Z,1013.32
2017-05-07T04:47:21.223Z,1013.31
2017-05-07T04:47:46.788Z,1013.34
2017-05-07T04:48:12.396Z,1013.33
2017-05-07T04:48:37.983Z,1013.35
2017-05-07T04:49:03.545Z,1013.32
2017-05-07T04:49:29.114Z,1013.34
2017-05-07T04:49:54.656Z,1013.38
2017-05-07T04:50:20.301Z,1013.36
2017-05-07T04:50:45.909Z,1013.37
2017-05-07T04:51:11.443Z,1013.38
2017-05-07T04:51:37.102Z,1013.37
2017-05-07T04:52:02.674Z,1013.42
2017-05-07T04:52:28.299Z,1013.37
2017-05-07T04:52:53.890Z,1013.38
2017-05-07T04:53:19.448Z,1013.36
2017-05-07T04:53:44.980Z,1013.37
2017-05-07T04:54:10.548Z,1013.36
2017-05-07T04:54:36.123Z,1013.33
2017-05-07T04:55:01.681Z,1013.39
2017-05-07T04:55:27.232Z,1013.4
2017-05-07T04:55:52.802Z,1013.4
2017-05-07T04:56:18.404Z,1013.38
2017-05-07T04:56:43.942Z,1013.4
2017-05-07T04:57:09.491Z,1013.44
2017-05-07T04:57:35.058Z,1013.43
2017-05-07T04:58:00.603Z,1013.42
2017-05-07T04:58:26.170Z,1013.47
2017-05-07T04:58:51.738Z,1013.44
2017-05-07T04:59:17.271Z,1013.45
2017-05-07T04:59:42.813Z,1013.45
2017-05-07T05:00:08.351Z,1013.45
2017-05-07T05:00:33.912Z,1013.5
2017-05-07T05:00:59.607Z,1013.49
2017-05-07T05:01:25.240Z,1013.47
2017-05-07T05:01:50.813Z,1013.47
2017-05-07T05:02:16.369Z,1013.49
2017-05-07T05:02:42.011Z,1013.52
2017-05-07T05:03:07.565Z,1013.5
2017-05-07T05:03:33.200Z,1013.51
2017-05-07T05:03:58.954Z,1013.52
2017-05-07T05:04:24.540Z,1013.51
2017-05-07T05:04:50.133Z,1013.51
2017-05-07T05:05:15.700Z,1013.53
2017-05-07T05:05:41.261Z,1013.49
2017-05-07T05:06:06.823Z,1013.53
2017-05-07T05:06:32.420Z,1013.53
2017-05-07T05:06:58.057Z,1013.53
2017-05-07T05:07:23.620Z,1013.53
2017-05-07T05:07:49.174Z,1013.55
2017-05-07T05:08:14.841Z,1013.55
2017-05-07T05:08:40.404Z,1013.59
2017-05-07T05:09:05.974Z,1013.59
2017-05-07T05:09:31.684Z,1013.62
2017-05-07T05:09:57.250Z,1013.63
2017-05-07T05:10:22.811Z,1013.63
2017-05-07T05:10:48.397Z,1013.62
2017-05-07T05:11:13.970Z,1013.61
2017-05-07T05:11:39.534Z,1013.67
2017-05-07T05:12:05.193Z,1013.68
2017-05-07T05:12:30.836Z,1013.62
2017-05-07T05:12:56.419Z,1013.61
2017-05-07T05:13:22.114Z,1013.64
2017-05-07T05:13:47.674Z,1013.63
2017-05-07T05:14:13.253Z,1013.64
2017-05-07T05:14:38.809Z,1013.63
2017-05-07T05:15:04.387Z,1013.62
2017-05-07T05:15:30.066Z,1013.69
2017-05-07T05:15:55.638Z,1013.66
2017-05-07T05:16:21.201Z,1013.68
2017-05-07T05:16:46.859Z,1013.65
2017-05-07T05:17:12.421Z,1013.66
2017-05-07T05:17:37.993Z,1013.68
2017-05-07T05:18:03.564Z,1013.66
2017-05-07T05:18:29.145Z,1013.72
2017-05-07T05:18:54.706Z,1013.72
2017-05-07T05:19:20.272Z,1013.76
2017-05-07T05:19:45.887Z,1013.77
2017-05-07T05:20:11.495Z,1013.7
2017-05-07T05:20:37.060Z,1013.7
2017-05-07T05:21:02.622Z,1013.73
2017-05-07T05:21:28.224Z,1013.74
2017-05-07T05:22:31.830Z,1013.73
2017-05-07T05:22:57.383Z,1013.73
2017-05-07T05:23:22.938Z,1013.74
2017-05-07T05:23:48.515Z,1013.8
2017-05-07T05:24:14.096Z,1013.75
2017-05-07T05:24:39.655Z,1013.72
2017-05-07T05:25:05.264Z,1013.75
2017-05-07T05:25:30.828Z,1013.76
2017-05-07T05:25:56.453Z,1013.75
2017-05-07T05:26:22.022Z,1013.78
2017-05-07T05:26:47.590Z,1013.81
2017-05-07T05:27:13.151Z,1013.76
2017-05-07T05:27:38.803Z,1013.78
2017-05-07T05:28:04.370Z,1013.76
2017-05-07T05:28:29.931Z,1013.79
2017-05-07T05:28:55.511Z,1013.8
2017-05-07T05:29:21.091Z,1013.8
2017-05-07T05:29:46.644Z,1013.79
2017-05-07T05:30:12.195Z,1013.8
2017-05-07T05:30:37.753Z,1013.81
2017-05-07T05:31:03.317Z,1013.82
2017-05-07T05:31:28.871Z,1013.8
2017-05-07T05:31:54.443Z,1013.81
2017-05-07T05:32:20.000Z,1013.83
2017-05-07T05:32:45.542Z,1013.83
2017-05-07T05:33:11.121Z,1013.77
2017-05-07T05:33:36.691Z,1013.77
2017-05-07T05:34:02.286Z,1013.79
2017-05-07T05:34:27.879Z,1013.84
2017-05-07T05:34:53.425Z,1013.77
2017-05-07T05:35:18.971Z,1013.79
2017-05-07T05:35:44.731Z,1013.79
2017-05-07T05:36:10.496Z,1013.8
2017-05-07T05:36:36.072Z,1013.78
2017-05-07T05:37:01.625Z,1013.81
2017-05-07T05:37:27.193Z,1013.87
2017-05-07T05:37:52.750Z,1013.81
2017-05-07T05:38:18.336Z,1013.83
2017-05-07T05:38:43.909Z,1013.84
2017-05-07T05:39:09.604Z,1013.84
2017-05-07T05:39:35.163Z,1013.82
2017-05-07T05:40:00.719Z,1013.79
2017-05-07T05:40:26.290Z,1013.81
2017-05-07T05:40:51.858Z,1013.83
2017-05-07T05:41:17.413Z,1013.82
2017-05-07T05:41:43.007Z,1013.83
2017-05-07T05:42:08.557Z,1013.86
2017-05-07T05:42:34.114Z,1013.86
2017-05-07T05:42:59.683Z,1013.84
2017-05-07T05:43:25.251Z,1013.81
2017-05-07T05:43:50.813Z,1013.82
2017-05-07T05:44:16.384Z,1013.85
2017-05-07T05:44:41.965Z,1013.84
2017-05-07T05:45:07.526Z,1013.9
2017-05-07T05:45:33.081Z,1013.87
2017-05-07T05:45:58.673Z,1013.91
2017-05-07T05:46:24.297Z,1013.87
2017-05-07T05:46:49.921Z,1013.9
2017-05-07T05:47:15.486Z,1013.9
2017-05-07T05:47:41.056Z,1013.9
2017-05-07T05:48:06.779Z,1013.93
2017-05-07T05:48:32.339Z,1013.9
2017-05-07T05:48:57.916Z,1013.91
2017-05-07T05:49:23.510Z,1013.91
2017-05-07T05:49:49.073Z,1013.91
2017-05-07T05:50:14.633Z,1013.92
2017-05-07T05:50:40.227Z,1013.9
2017-05-07T05:51:05.792Z,1013.94
2017-05-07T05:51:31.353Z,1013.94
2017-05-07T05:51:56.974Z,1013.93
2017-05-07T05:52:22.542Z,1013.92
2017-05-07T05:52:48.104Z,1013.91
2017-05-07T05:53:13.674Z,1013.95
2017-05-07T05:53:39.334Z,1013.97
2017-05-07T05:54:04.899Z,1013.95
2017-05-07T05:54:30.455Z,1013.93
2017-05-07T05:54:56.601Z,1013.91
2017-05-07T05:55:22.163Z,1013.97
2017-05-07T05:55:47.732Z,1014.01
2017-05-07T05:56:13.403Z,1013.97
2017-05-07T05:56:38.971Z,1013.95
2017-05-07T05:57:04.574Z,1013.96
2017-05-07T05:57:30.143Z,1013.99
2017-05-07T05:57:55.705Z,1013.95
2017-05-07T05:58:21.274Z,1013.94
2017-05-07T05:58:46.850Z,1013.97
2017-05-07T05:59:12.493Z,1013.95
2017-05-07T05:59:38.024Z,1013.95
2017-05-07T06:00:03.582Z,1013.97
2017-05-07T06:00:29.155Z,1014.01
2017-05-07T06:01:27.723Z,1013.97
2017-05-07T06:01:53.324Z,1013.99
2017-05-07T06:02:18.884Z,1014
2017-05-07T06:02:44.458Z,1014.02
2017-05-07T06:03:10.044Z,1014
2017-05-07T06:03:35.616Z,1013.99
2017-05-07T06:04:01.194Z,1014.02
2017-05-07T06:04:26.862Z,1014.04
2017-05-07T06:04:52.477Z,1014.03
2017-05-07T06:05:50.547Z,1014.04
2017-05-07T06:06:18.962Z,1014.03
2017-05-07T06:08:23.676Z,1014.02
2017-05-07T06:08:49.262Z,1014.04
2017-05-07T06:09:14.809Z,1014.07
2017-05-07T06:09:40.379Z,1014.02
2017-05-07T06:10:06.095Z,1014.03
2017-05-07T06:10:31.655Z,1014.03
2017-05-07T06:10:57.234Z,1014.04
2017-05-07T06:11:22.920Z,1014.05
2017-05-07T06:11:48.471Z,1014.04
2017-05-07T06:12:14.144Z,1014.02
2017-05-07T06:12:39.763Z,1014.02
2017-05-07T06:13:38.233Z,1014
2017-05-07T06:14:03.791Z,1014.01
2017-05-07T06:14:29.341Z,1014
2017-05-07T06:14:54.929Z,1014.01
2017-05-07T06:15:20.611Z,1014
2017-05-07T06:15:46.174Z,1013.98
2017-05-07T06:16:11.738Z,1013.96
2017-05-07T06:16:37.290Z,1013.98
2017-05-07T06:17:02.846Z,1013.99
2017-05-07T06:17:28.379Z,1014
2017-05-07T06:17:53.910Z,1013.99
2017-05-07T06:18:19.491Z,1013.99
2017-05-07T06:18:45.055Z,1013.98
2017-05-07T06:19:10.633Z,1013.99
2017-05-07T06:19:36.190Z,1014.02
2017-05-07T06:20:01.763Z,1013.97
2017-05-07T06:20:27.325Z,1014
2017-05-07T06:20:52.993Z,1014.04
2017-05-07T06:21:18.570Z,1013.98
2017-05-07T06:21:44.658Z,1014.01
2017-05-07T06:22:10.268Z,1014.03
2017-05-07T06:22:35.824Z,1014.05
2017-05-07T06:23:01.391Z,1014.04
2017-05-07T06:23:27.053Z,1014.07
2017-05-07T06:23:52.609Z,1014.01
2017-05-07T06:24:18.221Z,1014.05
2017-05-07T06:24:43.867Z,1014.02
2017-05-07T06:25:09.421Z,1014.04
2017-05-07T06:25:34.979Z,1014.04
2017-05-07T06:26:00.531Z,1014.01
2017-05-07T06:26:26.209Z,1014.03
2017-05-07T06:26:51.764Z,1014.02
2017-05-07T06:27:17.526Z,1014.05
2017-05-07T06:27:43.094Z,1014.05
2017-05-07T06:28:08.635Z,1014.08
2017-05-07T06:28:34.250Z,1014.08
2017-05-07T06:28:59.801Z,1014.09
2017-05-07T06:29:25.354Z,1014.1
2017-05-07T06:29:50.900Z,1014.09
2017-05-07T06:30:16.450Z,1014.11
2017-05-07T06:31:30.198Z,1014.11
2017-05-07T06:31:55.764Z,1014.09
2017-05-07T06:34:02.798Z,1014.11
2017-05-07T06:34:28.321Z,1014.11
2017-05-07T06:34:53.863Z,1014.11
2017-05-07T06:35:19.392Z,1014.13
2017-05-07T06:35:44.959Z,1014.13
2017-05-07T06:36:10.570Z,1014.11
2017-05-07T06:36:36.161Z,1014.11
2017-05-07T06:37:01.716Z,1014.12
2017-05-07T06:37:27.267Z,1014.1
2017-05-07T06:38:40.083Z,1014.08
2017-05-07T06:40:43.081Z,1014.1
2017-05-07T06:41:08.684Z,1014.15
2017-05-07T06:41:34.270Z,1014.11
2017-05-07T06:41:59.816Z,1014.12
2017-05-07T06:42:25.394Z,1014.12
2017-05-07T06:42:51.116Z,1014.08
2017-05-07T06:43:16.693Z,1014.14
2017-05-07T06:43:42.260Z,1014.09
2017-05-07T06:44:07.834Z,1014.1
2017-05-07T06:44:33.394Z,1014.11
2017-05-07T06:44:58.964Z,1014.14
2017-05-07T06:45:24.541Z,1014.11
2017-05-07T06:45:50.100Z,1014.09
2017-05-07T06:46:15.682Z,1014.09
2017-05-07T06:46:41.267Z,1014.08
2017-05-07T06:47:06.826Z,1014.06
2017-05-07T06:47:32.374Z,1014.09
2017-05-07T06:47:57.946Z,1014.13
2017-05-07T06:48:23.511Z,1014.14
2017-05-07T06:48:49.093Z,1014.11
2017-05-07T06:49:14.654Z,1014.1
2017-05-07T06:49:40.223Z,1014.08
2017-05-07T06:50:05.788Z,1014.11
2017-05-07T06:50:31.374Z,1014.1
2017-05-07T06:50:56.949Z,1014.12
2017-05-07T06:51:22.510Z,1014.12
2017-05-07T06:51:48.168Z,1014.07
2017-05-07T06:52:13.721Z,1014.09
2017-05-07T06:52:39.325Z,1014.1
2017-05-07T06:53:04.909Z,1014.08
2017-05-07T06:53:30.470Z,1014.11
2017-05-07T06:53:56.036Z,1014.1
2017-05-07T06:54:21.614Z,1014.08
2017-05-07T06:54:47.171Z,1014.08
2017-05-07T06:55:12.925Z,1014.06
2017-05-07T06:55:38.467Z,1014.06
2017-05-07T06:56:04.032Z,1014.08
2017-05-07T06:56:29.585Z,1014
2017-05-07T06:56:55.193Z,1014.06
2017-05-07T06:57:20.795Z,1014.05
2017-05-07T06:57:46.350Z,1014
2017-05-07T06:58:11.906Z,1014.03
2017-05-07T06:58:37.537Z,1014.07
2017-05-07T06:59:03.106Z,1014.08
2017-05-07T06:59:28.836Z,1014.05
2017-05-07T06:59:54.449Z,1014.05
2017-05-07T07:00:20.008Z,1014.07
2017-05-07T07:00:45.570Z,1014.06
2017-05-07T07:01:11.171Z,1014.07
2017-05-07T07:01:36.734Z,1014.08
2017-05-07T07:02:02.428Z,1014.06
2017-05-07T07:02:28.186Z,1014.07
2017-05-07T07:02:53.762Z,1014.09
2017-05-07T07:03:19.366Z,1014.06
2017-05-07T07:03:44.924Z,1014.06
2017-05-07T07:04:10.494Z,1014.07
2017-05-07T07:04:36.065Z,1014.08
2017-05-07T07:05:01.657Z,1014.06
2017-05-07T07:05:27.230Z,1014.07
2017-05-07T07:05:52.806Z,1014.06
2017-05-07T07:06:18.374Z,1014.13
2017-05-07T07:06:43.946Z,1014.1
2017-05-07T07:07:09.501Z,1014.09
2017-05-07T07:07:35.051Z,1014.09
2017-05-07T07:08:00.643Z,1014.07
2017-05-07T07:08:26.210Z,1014.1
2017-05-07T07:08:51.827Z,1014.11
2017-05-07T07:09:17.400Z,1014.12
2017-05-07T07:09:42.984Z,1014.13
2017-05-07T07:10:08.598Z,1014.14
2017-05-07T07:10:34.171Z,1014.12
2017-05-07T07:10:59.773Z,1014.15
2017-05-07T07:11:25.340Z,1014.13
2017-05-07T07:11:50.904Z,1014.13
2017-05-07T07:12:16.555Z,1014.1
2017-05-07T07:12:42.204Z,1014.14
2017-05-07T07:13:07.864Z,1014.14
2017-05-07T07:13:33.427Z,1014.14
2017-05-07T07:13:58.993Z,1014.11
2017-05-07T07:14:24.548Z,1014.12
2017-05-07T07:14:50.109Z,1014.14
2017-05-07T07:15:15.704Z,1014.17
2017-05-07T07:15:41.291Z,1014.17
2017-05-07T07:16:06.880Z,1014.15
2017-05-07T07:16:32.462Z,1014.15
2017-05-07T07:16:58.014Z,1014.14
2017-05-07T07:17:23.585Z,1014.14
2017-05-07T07:17:49.155Z,1014.13
2017-05-07T07:18:14.794Z,1014.18
2017-05-07T07:18:40.353Z,1014.14
2017-05-07T07:19:05.925Z,1014.14
2017-05-07T07:19:31.491Z,1014.12
2017-05-07T07:19:57.062Z,1014.14
2017-05-07T07:20:22.617Z,1014.14
2017-05-07T07:20:48.172Z,1014.19
2017-05-07T07:21:13.744Z,1014.17
2017-05-07T07:21:39.325Z,1014.21
2017-05-07T07:22:04.878Z,1014.18
2017-05-07T07:22:30.445Z,1014.2
2017-05-07T07:22:55.991Z,1014.19
2017-05-07T07:23:21.572Z,1014.17
2017-05-07T07:23:47.174Z,1014.15
2017-05-07T07:24:12.754Z,1014.17
2017-05-07T07:24:38.341Z,1014.18
2017-05-07T07:25:03.913Z,1014.19
2017-05-07T07:25:29.484Z,1014.17
2017-05-07T07:25:55.059Z,1014.19
2017-05-07T07:26:20.634Z,1014.19
2017-05-07T07:26:46.203Z,1014.23
2017-05-07T07:27:11.772Z,1014.23
2017-05-07T07:27:37.513Z,1014.2
2017-05-07T07:28:03.087Z,1014.19
2017-05-07T07:28:28.745Z,1014.22
2017-05-07T07:28:54.315Z,1014.21
2017-05-07T07:29:19.878Z,1014.23
2017-05-07T07:29:45.459Z,1014.23
2017-05-07T07:30:11.197Z,1014.2
2017-05-07T07:30:36.760Z,1014.22
2017-05-07T07:31:02.321Z,1014.27
2017-05-07T07:31:27.894Z,1014.23
2017-05-07T07:31:53.460Z,1014.22
2017-05-07T07:32:19.024Z,1014.23
2017-05-07T07:32:44.600Z,1014.29
2017-05-07T07:33:10.196Z,1014.25
2017-05-07T07:33:35.783Z,1014.23
2017-05-07T07:34:01.354Z,1014.26
2017-05-07T07:34:26.905Z,1014.23
2017-05-07T07:34:52.513Z,1014.26
2017-05-07T07:35:18.146Z,1014.27
2017-05-07T07:35:43.710Z,1014.28
2017-05-07T07:36:09.376Z,1014.28
2017-05-07T07:36:34.950Z,1014.31
2017-05-07T07:37:00.562Z,1014.25
2017-05-07T07:37:26.105Z,1014.26
2017-05-07T07:37:51.705Z,1014.28
2017-05-07T07:38:17.332Z,1014.25
2017-05-07T07:38:42.892Z,1014.31
2017-05-07T07:39:08.462Z,1014.28
2017-05-07T07:39:34.024Z,1014.29
2017-05-07T07:39:59.563Z,1014.27
2017-05-07T07:40:25.123Z,1014.28
2017-05-07T07:40:50.660Z,1014.34
2017-05-07T07:41:16.214Z,1014.3
2017-05-07T07:41:41.761Z,1014.31
2017-05-07T07:42:07.296Z,1014.36
2017-05-07T07:42:32.874Z,1014.33
2017-05-07T07:42:58.450Z,1014.31
2017-05-07T07:43:24.022Z,1014.36
2017-05-07T07:43:49.587Z,1014.3
2017-05-07T07:44:15.258Z,1014.33
2017-05-07T07:44:40.793Z,1014.29
2017-05-07T07:45:06.373Z,1014.32
2017-05-07T07:45:31.948Z,1014.36
2017-05-07T07:45:57.537Z,1014.32
2017-05-07T07:46:23.085Z,1014.33
2017-05-07T07:46:48.642Z,1014.29
2017-05-07T07:47:14.224Z,1014.33
2017-05-07T07:47:39.784Z,1014.3
2017-05-07T07:48:06.260Z,1014.35
2017-05-07T07:48:31.819Z,1014.31
2017-05-07T07:48:57.349Z,1014.33
2017-05-07T07:49:22.955Z,1014.36
2017-05-07T07:49:48.592Z,1014.34
2017-05-07T07:50:14.132Z,1014.33
2017-05-07T07:50:39.720Z,1014.36
2017-05-07T07:51:05.421Z,1014.34
2017-05-07T07:51:30.981Z,1014.36
2017-05-07T07:51:56.643Z,1014.32
2017-05-07T07:52:22.217Z,1014.34
2017-05-07T07:52:47.775Z,1014.35
2017-05-07T07:53:13.331Z,1014.34
2017-05-07T07:53:39.024Z,1014.38
2017-05-07T07:54:04.584Z,1014.37
2017-05-07T07:54:30.147Z,1014.36
2017-05-07T07:54:55.727Z,1014.38
2017-05-07T07:55:21.346Z,1014.39
2017-05-07T07:55:46.949Z,1014.36
2017-05-07T07:56:12.543Z,1014.42
2017-05-07T07:56:38.134Z,1014.39
2017-05-07T07:57:04.514Z,1014.37
2017-05-07T07:57:30.085Z,1014.4
2017-05-07T07:57:55.674Z,1014.4
2017-05-07T07:58:21.234Z,1014.42
2017-05-07T07:58:46.809Z,1014.42
2017-05-07T07:59:12.500Z,1014.39
2017-05-07T07:59:38.203Z,1014.42
2017-05-07T08:00:03.781Z,1014.4
2017-05-07T08:00:29.332Z,1014.38
2017-05-07T08:00:54.875Z,1014.4
2017-05-07T08:01:20.435Z,1014.45
2017-05-07T08:01:46.011Z,1014.41
2017-05-07T08:02:11.562Z,1014.4
2017-05-07T08:02:37.124Z,1014.42
2017-05-07T08:03:02.692Z,1014.45
2017-05-07T08:03:28.373Z,1014.37
2017-05-07T08:03:53.932Z,1014.42
2017-05-07T08:04:19.493Z,1014.35
2017-05-07T08:04:45.065Z,1014.41
2017-05-07T08:05:10.600Z,1014.39
2017-05-07T08:05:36.162Z,1014.39
2017-05-07T08:06:01.731Z,1014.37
2017-05-07T08:06:27.305Z,1014.4
2017-05-07T08:06:52.931Z,1014.4
2017-05-07T08:07:18.534Z,1014.39
2017-05-07T08:07:44.082Z,1014.39
2017-05-07T08:08:09.669Z,1014.43
2017-05-07T08:08:35.247Z,1014.4
2017-05-07T08:09:00.936Z,1014.42
2017-05-07T08:10:19.959Z,1014.4
2017-05-07T08:10:45.514Z,1014.43
2017-05-07T08:11:11.125Z,1014.42
2017-05-07T08:11:36.767Z,1014.42
2017-05-07T08:12:02.337Z,1014.45
2017-05-07T08:12:27.893Z,1014.39
2017-05-07T08:12:53.450Z,1014.4
2017-05-07T08:13:19.060Z,1014.45
2017-05-07T08:13:44.626Z,1014.4
2017-05-07T08:14:10.184Z,1014.41
2017-05-07T08:14:35.730Z,1014.41
2017-05-07T08:15:02.093Z,1014.41
2017-05-07T08:15:27.643Z,1014.36
2017-05-07T08:15:53.228Z,1014.39
2017-05-07T08:16:18.824Z,1014.38
2017-05-07T08:16:44.392Z,1014.38
2017-05-07T08:17:10.166Z,1014.42
2017-05-07T08:17:35.872Z,1014.38
2017-05-07T08:18:01.442Z,1014.39
2017-05-07T08:18:27.019Z,1014.36
2017-05-07T08:18:52.714Z,1014.39
2017-05-07T08:19:18.282Z,1014.39
2017-05-07T08:19:43.855Z,1014.4
2017-05-07T08:20:09.407Z,1014.4
2017-05-07T08:20:35.081Z,1014.37
2017-05-07T08:21:00.648Z,1014.44
2017-05-07T08:21:26.324Z,1014.41
2017-05-07T08:21:51.892Z,1014.39
2017-05-07T08:22:17.489Z,1014.4
2017-05-07T08:22:43.063Z,1014.41
2017-05-07T08:23:08.651Z,1014.37
2017-05-07T08:23:34.353Z,1014.45
2017-05-07T08:24:00.114Z,1014.43
2017-05-07T08:24:25.665Z,1014.43
2017-05-07T08:24:51.244Z,1014.43
2017-05-07T08:25:16.871Z,1014.46
2017-05-07T08:25:42.412Z,1014.45
2017-05-07T08:26:07.970Z,1014.48
2017-05-07T08:26:33.530Z,1014.43
2017-05-07T08:26:59.109Z,1014.45
2017-05-07T08:27:24.659Z,1014.45
2017-05-07T08:27:50.270Z,1014.49
2017-05-07T08:28:15.823Z,1014.45
2017-05-07T08:28:41.392Z,1014.5
2017-05-07T08:29:07.102Z,1014.46
2017-05-07T08:29:32.682Z,1014.49
2017-05-07T08:29:58.244Z,1014.48
2017-05-07T08:30:23.812Z,1014.46
2017-05-07T08:30:49.389Z,1014.49
2017-05-07T08:31:14.945Z,1014.48
2017-05-07T08:31:40.516Z,1014.49
2017-05-07T08:32:06.063Z,1014.51
2017-05-07T08:32:31.644Z,1014.52
2017-05-07T08:32:57.212Z,1014.56
2017-05-07T08:33:22.772Z,1014.54
2017-05-07T08:33:48.357Z,1014.53
2017-05-07T08:34:13.922Z,1014.57
2017-05-07T08:34:39.510Z,1014.54
2017-05-07T08:35:05.111Z,1014.5
2017-05-07T08:35:30.676Z,1014.54
2017-05-07T08:35:56.233Z,1014.56
2017-05-07T08:36:21.907Z,1014.52
2017-05-07T08:36:47.533Z,1014.56
2017-05-07T08:37:13.108Z,1014.56
2017-05-07T08:37:38.693Z,1014.51
2017-05-07T08:38:04.263Z,1014.56
2017-05-07T08:38:29.832Z,1014.55
2017-05-07T08:38:55.412Z,1014.58
2017-05-07T08:39:21.144Z,1014.56
2017-05-07T08:39:46.717Z,1014.51
2017-05-07T08:40:12.277Z,1014.55
2017-05-07T08:40:37.905Z,1014.58
2017-05-07T08:41:03.957Z,1014.57
2017-05-07T08:41:29.053Z,1014.57
2017-05-07T08:42:37.553Z,1014.59
2017-05-07T08:43:03.127Z,1014.64
2017-05-07T08:43:28.691Z,1014.59
2017-05-07T08:43:54.410Z,1014.61
2017-05-07T08:44:19.961Z,1014.64
2017-05-07T08:44:45.684Z,1014.61
2017-05-07T08:45:11.234Z,1014.62
2017-05-07T08:45:36.787Z,1014.67
2017-05-07T08:46:02.362Z,1014.61
2017-05-07T08:46:27.923Z,1014.64
2017-05-07T08:46:53.505Z,1014.63
2017-05-07T08:47:19.093Z,1014.66
2017-05-07T08:47:44.696Z,1014.64
2017-05-07T08:48:10.373Z,1014.63
2017-05-07T08:48:35.942Z,1014.64
2017-05-07T08:49:01.525Z,1014.62
2017-05-07T08:49:27.269Z,1014.61
2017-05-07T08:49:52.876Z,1014.61
2017-05-07T08:50:18.539Z,1014.65
2017-05-07T08:50:44.104Z,1014.63
2017-05-07T08:52:35.801Z,1014.59
2017-05-07T08:53:01.353Z,1014.6
2017-05-07T08:53:26.915Z,1014.58
2017-05-07T08:53:52.525Z,1014.66
2017-05-07T08:54:18.164Z,1014.66
2017-05-07T08:54:43.717Z,1014.62
2017-05-07T08:55:09.439Z,1014.68
2017-05-07T08:55:35.016Z,1014.66
2017-05-07T08:56:00.713Z,1014.65
2017-05-07T08:56:26.296Z,1014.64
2017-05-07T08:56:51.849Z,1014.66
2017-05-07T08:57:17.409Z,1014.68
2017-05-07T08:57:42.984Z,1014.66
2017-05-07T08:58:08.591Z,1014.64
2017-05-07T08:58:34.184Z,1014.63
2017-05-07T08:59:00.025Z,1014.67
2017-05-07T08:59:25.795Z,1014.65
2017-05-07T08:59:51.404Z,1014.67
2017-05-07T09:00:16.960Z,1014.63
2017-05-07T09:00:42.536Z,1014.66
2017-05-07T09:01:08.206Z,1014.63
2017-05-07T09:01:33.775Z,1014.65
2017-05-07T09:01:59.402Z,1014.62
2017-05-07T09:02:25.037Z,1014.62
2017-05-07T09:02:50.629Z,1014.65
2017-05-07T09:03:16.191Z,1014.63
2017-05-07T09:03:41.842Z,1014.67
2017-05-07T09:04:07.441Z,1014.66
2017-05-07T09:04:33.004Z,1014.62
2017-05-07T09:04:58.552Z,1014.65
2017-05-07T09:05:24.155Z,1014.7
2017-05-07T09:05:49.745Z,1014.72
2017-05-07T09:06:15.450Z,1014.73
2017-05-07T09:06:41.081Z,1014.74
2017-05-07T09:07:06.660Z,1014.7
2017-05-07T09:07:32.236Z,1014.73
2017-05-07T09:07:57.824Z,1014.71
2017-05-07T09:08:23.450Z,1014.73
2017-05-07T09:08:49.028Z,1014.7
2017-05-07T09:09:14.629Z,1014.71
2017-05-07T09:09:40.284Z,1014.72
2017-05-07T09:10:05.929Z,1014.7
2017-05-07T09:10:31.493Z,1014.74
2017-05-07T09:10:57.090Z,1014.72
2017-05-07T09:11:22.724Z,1014.72
2017-05-07T09:11:48.328Z,1014.74
2017-05-07T09:12:13.910Z,1014.73
2017-05-07T09:12:39.503Z,1014.7
2017-05-07T09:13:05.074Z,1014.72
2017-05-07T09:13:30.666Z,1014.66
2017-05-07T09:13:56.260Z,1014.68
2017-05-07T09:14:21.826Z,1014.62
2017-05-07T09:14:47.414Z,1014.68
2017-05-07T09:15:12.977Z,1014.66
2017-05-07T09:15:38.573Z,1014.69
2017-05-07T09:16:04.125Z,1014.7
2017-05-07T09:16:29.687Z,1014.71
2017-05-07T09:16:55.247Z,1014.72
2017-05-07T09:17:21.000Z,1014.7
2017-05-07T09:17:46.559Z,1014.73
2017-05-07T09:18:12.111Z,1014.77
2017-05-07T09:18:37.682Z,1014.71
2017-05-07T09:19:03.238Z,1014.72
2017-05-07T09:19:28.844Z,1014.76
2017-05-07T09:20:37.646Z,1014.75
2017-05-07T09:21:03.248Z,1014.76
2017-05-07T09:21:28.826Z,1014.74
2017-05-07T09:21:54.406Z,1014.72
2017-05-07T09:22:20.081Z,1014.74
2017-05-07T09:22:45.657Z,1014.75
2017-05-07T09:23:11.233Z,1014.76
2017-05-07T09:23:36.805Z,1014.78
2017-05-07T09:24:02.381Z,1014.76